SWA3437 KMKE-KBWI
Flight info
| Callsign | SWA3437 |
|---|---|
| Flight time | N/A |
| Altitude | 37000 |
| Route | UECKR6 SAMPL ADIME OTENS ANEWA JERRI NUSMM ANTHM5 |
| Aircraft | B738/M-SADE2E3GIJ4RWZ/LB1D1 |
Departure
| Time | 2026-04-16 22:07 |
|---|---|
| Airport | General Mitchell International Airport (KMKE) |
Arrival
| Time | N/A |
|---|---|
| Airport | Baltimore/Washington International Thurgood Marshall Airport (KBWI) |
| Time | Latitude | Longitude | Altitude | Speed | Heading |
|---|---|---|---|---|---|
| 2026-04-16 21:52 | 42.94991 | -87.89965 | 687 ft | 0 kts | 320° |
| 2026-04-16 21:58 | 42.94989 | -87.89962 | 678 ft | 3 kts | 320° |
| 2026-04-16 21:58 | 42.94969 | -87.89940 | 681 ft | 4 kts | 329° |
| 2026-04-16 21:58 | 42.94949 | -87.89939 | 683 ft | 4 kts | 26° |
| 2026-04-16 21:58 | 42.94928 | -87.89953 | 681 ft | 2 kts | 26° |
| 2026-04-16 21:59 | 42.94928 | -87.89954 | 681 ft | 0 kts | 26° |
| 2026-04-16 22:01 | 42.94933 | -87.89950 | 687 ft | 2 kts | 31° |
| 2026-04-16 22:01 | 42.94954 | -87.89917 | 686 ft | 7 kts | 50° |
| 2026-04-16 22:01 | 42.94985 | -87.89845 | 686 ft | 11 kts | 73° |
| 2026-04-16 22:02 | 42.94965 | -87.89750 | 683 ft | 11 kts | 128° |
| 2026-04-16 22:02 | 42.94896 | -87.89702 | 683 ft | 13 kts | 181° |
| 2026-04-16 22:02 | 42.94789 | -87.89719 | 683 ft | 17 kts | 186° |
| 2026-04-16 22:02 | 42.94670 | -87.89738 | 683 ft | 17 kts | 187° |
| 2026-04-16 22:03 | 42.94576 | -87.89818 | 687 ft | 17 kts | 241° |
| 2026-04-16 22:03 | 42.94512 | -87.89957 | 684 ft | 18 kts | 212° |
| 2026-04-16 22:03 | 42.94394 | -87.89944 | 683 ft | 18 kts | 169° |
| 2026-04-16 22:03 | 42.94263 | -87.89914 | 683 ft | 21 kts | 170° |
| 2026-04-16 22:04 | 42.94111 | -87.89883 | 683 ft | 23 kts | 178° |
| 2026-04-16 22:04 | 42.93953 | -87.89886 | 685 ft | 22 kts | 180° |
| 2026-04-16 22:04 | 42.93800 | -87.89885 | 683 ft | 22 kts | 183° |
| 2026-04-16 22:04 | 42.93651 | -87.89892 | 685 ft | 21 kts | 180° |
| 2026-04-16 22:05 | 42.93507 | -87.89895 | 685 ft | 20 kts | 183° |
| 2026-04-16 22:05 | 42.93367 | -87.89903 | 686 ft | 20 kts | 183° |
| 2026-04-16 22:05 | 42.93234 | -87.89926 | 684 ft | 19 kts | 186° |
| 2026-04-16 22:05 | 42.93110 | -87.89942 | 686 ft | 16 kts | 175° |
| 2026-04-16 22:06 | 42.93066 | -87.89818 | 684 ft | 16 kts | 90° |
| 2026-04-16 22:06 | 42.93526 | -87.89685 | 683 ft | 90 kts | 8° |
| 2026-04-16 22:06 | 42.94374 | -87.89533 | 696 ft | 152 kts | 9° |
| 2026-04-16 22:07 | 42.95467 | -87.89339 | 1399 ft | 156 kts | 7° |
| 2026-04-16 22:07 | 42.96576 | -87.89136 | 2088 ft | 169 kts | 6° |
| 2026-04-16 22:07 | 42.97803 | -87.88699 | 2343 ft | 200 kts | 27° |
| 2026-04-16 22:07 | 42.98828 | -87.87270 | 2537 ft | 226 kts | 55° |
| 2026-04-16 22:08 | 42.99693 | -87.85363 | 2757 ft | 248 kts | 56° |
| 2026-04-16 22:08 | 43.00647 | -87.83287 | 3192 ft | 263 kts | 55° |
| 2026-04-16 22:08 | 43.01446 | -87.81013 | 3895 ft | 272 kts | 75° |
| 2026-04-16 22:08 | 43.01449 | -87.78406 | 4635 ft | 281 kts | 103° |
| 2026-04-16 22:09 | 43.00578 | -87.76014 | 5339 ft | 286 kts | 131° |
| 2026-04-16 22:09 | 42.99005 | -87.74370 | 6087 ft | 287 kts | 159° |
| 2026-04-16 22:09 | 42.97082 | -87.73680 | 6820 ft | 287 kts | 173° |
| 2026-04-16 22:09 | 42.95094 | -87.73290 | 7574 ft | 291 kts | 175° |
| 2026-04-16 22:10 | 42.93080 | -87.72834 | 8405 ft | 296 kts | 171° |
| 2026-04-16 22:10 | 42.91049 | -87.72256 | 9332 ft | 301 kts | 170° |
| 2026-04-16 22:10 | 42.88991 | -87.71647 | 10240 ft | 305 kts | 170° |
| 2026-04-16 22:10 | 42.86850 | -87.71018 | 10661 ft | 328 kts | 170° |
| 2026-04-16 22:11 | 42.84521 | -87.70344 | 10881 ft | 356 kts | 170° |
| 2026-04-16 22:11 | 42.82017 | -87.69626 | 11257 ft | 375 kts | 170° |
| 2026-04-16 22:11 | 42.79435 | -87.68890 | 11953 ft | 383 kts | 170° |
| 2026-04-16 22:11 | 42.76841 | -87.68155 | 12745 ft | 387 kts | 170° |
| 2026-04-16 22:12 | 42.74190 | -87.67407 | 13534 ft | 392 kts | 170° |
| 2026-04-16 22:12 | 42.71494 | -87.66649 | 14247 ft | 398 kts | 170° |
| 2026-04-16 22:12 | 42.68766 | -87.65885 | 14963 ft | 402 kts | 170° |
| 2026-04-16 22:12 | 42.66013 | -87.65115 | 15688 ft | 406 kts | 170° |
| 2026-04-16 22:13 | 42.63227 | -87.64337 | 16396 ft | 410 kts | 170° |
| 2026-04-16 22:13 | 42.60413 | -87.63552 | 17086 ft | 415 kts | 170° |
| 2026-04-16 22:13 | 42.57570 | -87.62760 | 17742 ft | 420 kts | 170° |
| 2026-04-16 22:13 | 42.54689 | -87.61958 | 18358 ft | 425 kts | 170° |
| 2026-04-16 22:14 | 42.51773 | -87.61147 | 18952 ft | 429 kts | 170° |
| 2026-04-16 22:14 | 42.48835 | -87.60331 | 19557 ft | 433 kts | 170° |
| 2026-04-16 22:14 | 42.45863 | -87.59506 | 20151 ft | 437 kts | 170° |
| 2026-04-16 22:14 | 42.42874 | -87.58677 | 20723 ft | 441 kts | 170° |
| 2026-04-16 22:15 | 42.39849 | -87.57839 | 21289 ft | 445 kts | 169° |
| 2026-04-16 22:15 | 42.36835 | -87.57005 | 21818 ft | 449 kts | 169° |
| 2026-04-16 22:15 | 42.33760 | -87.56155 | 22360 ft | 453 kts | 169° |
| 2026-04-16 22:15 | 42.30653 | -87.55297 | 22890 ft | 457 kts | 169° |
| 2026-04-16 22:16 | 42.27519 | -87.54432 | 23428 ft | 461 kts | 169° |
| 2026-04-16 22:16 | 42.24365 | -87.53562 | 23878 ft | 464 kts | 169° |
| 2026-04-16 22:16 | 42.21192 | -87.52688 | 24355 ft | 466 kts | 169° |
| 2026-04-16 22:16 | 42.17994 | -87.51808 | 24838 ft | 468 kts | 169° |
| 2026-04-16 22:17 | 42.14796 | -87.50929 | 25312 ft | 470 kts | 170° |
| 2026-04-16 22:17 | 42.11585 | -87.50047 | 25803 ft | 471 kts | 170° |
| 2026-04-16 22:17 | 42.08370 | -87.49165 | 26221 ft | 474 kts | 170° |
| 2026-04-16 22:17 | 42.05157 | -87.48124 | 26593 ft | 479 kts | 160° |
| 2026-04-16 22:18 | 42.02249 | -87.45918 | 26948 ft | 483 kts | 140° |
| 2026-04-16 22:18 | 41.99976 | -87.42684 | 27376 ft | 483 kts | 123° |
| 2026-04-16 22:18 | 41.98389 | -87.38723 | 27793 ft | 482 kts | 109° |
| 2026-04-16 22:18 | 41.97605 | -87.34378 | 28123 ft | 479 kts | 92° |
| 2026-04-16 22:19 | 41.97483 | -87.29896 | 28466 ft | 481 kts | 88° |
| 2026-04-16 22:19 | 41.97455 | -87.25385 | 28725 ft | 485 kts | 87° |
| 2026-04-16 22:19 | 41.97445 | -87.20828 | 29065 ft | 488 kts | 87° |
| 2026-04-16 22:19 | 41.97424 | -87.16268 | 29433 ft | 490 kts | 88° |
| 2026-04-16 22:20 | 41.97383 | -87.11664 | 29787 ft | 492 kts | 88° |
| 2026-04-16 22:20 | 41.97325 | -87.07071 | 30145 ft | 493 kts | 88° |
| 2026-04-16 22:20 | 41.97253 | -87.02468 | 30595 ft | 491 kts | 89° |
| 2026-04-16 22:20 | 41.97173 | -86.97899 | 31152 ft | 486 kts | 89° |
| 2026-04-16 22:21 | 41.97091 | -86.93381 | 31691 ft | 482 kts | 89° |
| 2026-04-16 22:21 | 41.97007 | -86.88900 | 32210 ft | 478 kts | 89° |
| 2026-04-16 22:21 | 41.96925 | -86.84436 | 32646 ft | 476 kts | 89° |
| 2026-04-16 22:21 | 41.96842 | -86.80001 | 33068 ft | 474 kts | 89° |
| 2026-04-16 22:22 | 41.96759 | -86.75569 | 33500 ft | 472 kts | 89° |
| 2026-04-16 22:22 | 41.96674 | -86.71170 | 33949 ft | 470 kts | 89° |
| 2026-04-16 22:22 | 41.96588 | -86.66796 | 34289 ft | 469 kts | 89° |
| 2026-04-16 22:22 | 41.96501 | -86.62398 | 34471 ft | 472 kts | 89° |
| 2026-04-16 22:23 | 41.96411 | -86.57971 | 34654 ft | 474 kts | 89° |
| 2026-04-16 22:23 | 41.96319 | -86.53532 | 34869 ft | 476 kts | 89° |
| 2026-04-16 22:23 | 41.96226 | -86.49129 | 35035 ft | 479 kts | 89° |
| 2026-04-16 22:23 | 41.96130 | -86.44652 | 35288 ft | 480 kts | 90° |
| 2026-04-16 22:24 | 41.96031 | -86.40161 | 35554 ft | 480 kts | 90° |
| 2026-04-16 22:24 | 41.95930 | -86.35675 | 35775 ft | 482 kts | 90° |
| 2026-04-16 22:24 | 41.95829 | -86.31168 | 35977 ft | 483 kts | 90° |
| 2026-04-16 22:24 | 41.95724 | -86.26650 | 36207 ft | 484 kts | 90° |
| 2026-04-16 22:25 | 41.95577 | -86.22141 | 36440 ft | 485 kts | 94° |
| 2026-04-16 22:25 | 41.95017 | -86.17651 | 36636 ft | 487 kts | 104° |
| 2026-04-16 22:25 | 41.94158 | -86.13229 | 36746 ft | 491 kts | 105° |
| 2026-04-16 22:25 | 41.93246 | -86.08794 | 36868 ft | 493 kts | 106° |